Tropical Cyclones
[Index]
Main Index Home Page Stock Weather Photos Extreme Storms Discussion Storm News and Storm Chasing Reports Tropical Cyclones / Hurricanes / Typhoons Weather Data and Links Wild Fires / Bushfires Weather Observation Techniques Weather Picture Catalogue Tornado Pictures and Reports Stock Video Footage and DVDs for sale
Season 2016-2017 Tropical Cyclone 201703 Track Map
Season 2016-2017 Summaries (Operational Data): [AU] [SIO] [SPAC] [SH]
<<- Previous TC | 2016-2017 Season | Next TC ->>

click for intensity scale information  Lat/long Grid: Show Hide

 Date Labels: Show Hide

Operational Tropical Cyclone Data : JTWC Advisories

Name: 201703
Number: 1703

22 Jan 2017 12:00 UTC to 31 Jan 2017 06:00 UTC

    date/time    lat    long     hPa   cat  kts
2017-01-22 12   14.2   137.6    1010         15          
2017-01-22 18   14.2   137.3    1010         15          
2017-01-23 00   14.2   137.0    1010         15          
2017-01-23 06   14.8   137.4    1010         15          
2017-01-23 12   14.8   136.5    1007         20          
2017-01-23 18   15.9   134.4    1003         20          
2017-01-24 00   16.0   133.0    1007         20          
2017-01-24 06   16.0   131.7    1004         20          
2017-01-24 12   16.0   130.2    1002         20          
2017-01-24 18   15.9   128.9    1003         20          
2017-01-25 00   15.8   128.1    1003         20          
2017-01-25 06   15.8   127.4    1002         20          
2017-01-25 12   15.9   126.7    1002         25          
2017-01-25 18   16.2   125.9    1004         25          
2017-01-26 00   16.8   124.6    1004         25          
2017-01-26 06   17.3   123.1     998         25          
2017-01-26 12   17.1   121.9     998         25          
2017-01-26 18   17.4   121.2     997         30          
2017-01-27 00   17.8   120.3     998         30          
2017-01-27 06   18.4   118.7     994    1    35          
2017-01-27 12   19.0   117.2     994    1    35          
2017-01-27 18   19.5   116.4     992    1    40          
2017-01-28 00   20.4   114.8     991    1    45          
2017-01-28 06   20.4   113.0     993    1    45          
2017-01-28 12   20.3   111.5     997    1    40          
2017-01-28 18   20.0   110.4     996    1    40          
2017-01-29 00   19.5   109.8     998    1    35          
2017-01-29 06   19.3   109.6     998         30          
2017-01-29 09   19.5   109.3    1000         30          
2017-01-29 12   19.2   108.8    1000         30          
2017-01-29 18   19.3   108.3    1000         30          
2017-01-30 00   19.4   107.3    1000         30          
2017-01-30 06   20.0   106.3    1000         25          
2017-01-30 12   20.6   105.4    1000         25          
2017-01-30 18   21.1   104.3    1007         20          
2017-01-31 00   21.1   104.3     999         20          
2017-01-31 06   21.1   102.8    1004         20          
Winds are 10-min average.

Tropical cyclone tracks developed by Michael Bath using operational warnings and advisories and Google Maps.


[Australian Severe Weather index] [Copyright Notice] [Email Contacts] [Search This Site] [Privacy Policy]
Document: tropical_cyclone_201703.htm Updated: 4 July 2017